createdAt,value
2023-12-22T00:01:53.452Z,8.85
2023-12-22T00:06:55.909Z,13.13
2023-12-22T00:11:57.328Z,13.13
2023-12-22T00:16:58.807Z,8.88
2023-12-22T00:22:00.284Z,9.38
2023-12-22T00:27:01.870Z,15.57
2023-12-22T00:32:03.309Z,10.23
2023-12-22T00:37:05.783Z,18.70
2023-12-22T00:42:07.186Z,7.65
2023-12-22T00:47:08.940Z,7.22
2023-12-22T00:52:10.360Z,8.45
2023-12-22T00:57:12.250Z,14.43
2023-12-22T01:02:13.603Z,14.43
2023-12-22T01:07:15.429Z,7.35
2023-12-22T01:12:16.878Z,13.90
2023-12-22T01:17:18.323Z,13.05
2023-12-22T01:22:19.841Z,11.40
2023-12-22T01:27:21.285Z,6.72
2023-12-22T01:32:22.703Z,6.60
2023-12-22T01:37:25.629Z,13.90
2023-12-22T01:42:27.056Z,12.18
2023-12-22T01:47:28.485Z,13.30
2023-12-22T01:52:30.177Z,18.10
2023-12-22T01:57:31.576Z,17.70
2023-12-22T02:02:32.957Z,10.23
2023-12-22T02:07:34.644Z,15.60
2023-12-22T02:12:37.544Z,5.13
2023-12-22T02:17:42.038Z,12.95
2023-12-22T02:22:43.499Z,14.43
2023-12-22T02:27:53.772Z,17.67
2023-12-22T02:33:00.287Z,10.13
2023-12-22T02:38:02.859Z,13.07
2023-12-22T02:43:05.236Z,17.55
2023-12-22T02:48:07.096Z,19.98
2023-12-22T02:53:08.637Z,15.43
2023-12-22T02:58:10.053Z,10.48
2023-12-22T03:03:11.446Z,16.80
2023-12-22T03:08:12.842Z,19.63
2023-12-22T03:13:14.258Z,13.68
2023-12-22T03:18:15.726Z,15.32
2023-12-22T03:23:17.119Z,13.30
2023-12-22T03:28:18.539Z,11.82
2023-12-22T03:33:19.961Z,14.75
2023-12-22T03:38:21.357Z,13.15
2023-12-22T03:43:22.900Z,8.38
2023-12-22T03:48:24.410Z,12.00
2023-12-22T03:53:25.790Z,8.73
2023-12-22T03:58:27.409Z,6.90
2023-12-22T04:03:28.920Z,10.77
2023-12-22T04:08:30.475Z,8.30
2023-12-22T04:13:31.845Z,10.00
2023-12-22T04:18:33.553Z,9.05
2023-12-22T04:23:35.130Z,12.95
2023-12-22T04:28:36.503Z,11.90
2023-12-22T04:33:37.935Z,12.68
2023-12-22T04:38:41.517Z,9.20
2023-12-22T04:43:42.914Z,5.90
2023-12-22T04:48:44.407Z,5.50
2023-12-22T04:53:45.975Z,6.88
2023-12-22T04:58:47.519Z,5.88
2023-12-22T05:03:48.928Z,8.05
2023-12-22T05:08:50.359Z,9.35
2023-12-22T05:13:51.741Z,3.28
2023-12-22T05:18:53.118Z,4.47
2023-12-22T05:23:54.691Z,4.90
2023-12-22T05:28:56.137Z,5.82
2023-12-22T05:33:57.829Z,3.70
2023-12-22T05:38:59.437Z,4.82
2023-12-22T05:44:00.892Z,11.18
2023-12-22T05:49:02.355Z,4.22
2023-12-22T05:54:03.859Z,7.40
2023-12-22T05:59:05.253Z,5.93
2023-12-22T06:04:07.000Z,8.88
2023-12-22T06:09:08.438Z,5.18
2023-12-22T06:14:09.935Z,8.90
2023-12-22T06:19:11.688Z,4.43
2023-12-22T06:24:13.169Z,5.82
2023-12-22T06:29:15.396Z,7.90
2023-12-22T06:34:17.187Z,9.23
2023-12-22T06:39:20.638Z,6.05
2023-12-22T06:44:22.142Z,18.38
2023-12-22T06:49:25.930Z,9.80
2023-12-22T06:54:28.036Z,21.05
2023-12-22T06:59:30.108Z,9.52
2023-12-22T07:05:09.836Z,4.97
2023-12-22T07:10:13.582Z,4.82
2023-12-22T07:15:15.049Z,7.53
2023-12-22T07:20:16.503Z,7.90
2023-12-22T07:25:20.277Z,8.48
2023-12-22T07:30:22.385Z,3.58
2023-12-22T07:40:25.298Z,10.40
2023-12-22T07:45:26.962Z,4.25
2023-12-22T07:50:30.246Z,7.43
2023-12-22T07:55:31.741Z,9.25
2023-12-22T08:00:33.181Z,3.80
2023-12-22T08:05:34.641Z,6.95
2023-12-22T08:10:36.069Z,3.90
2023-12-22T08:15:37.654Z,1.58
2023-12-22T08:20:42.125Z,0.93
2023-12-22T08:25:45.686Z,2.03
2023-12-22T08:30:48.109Z,1.08
2023-12-22T08:35:49.521Z,3.30
2023-12-22T08:40:52.495Z,1.80
2023-12-22T08:45:54.634Z,7.68
2023-12-22T08:50:56.045Z,4.30
2023-12-22T08:55:57.660Z,9.40
2023-12-22T09:00:59.108Z,8.07
2023-12-22T09:06:00.609Z,6.32
2023-12-22T09:11:02.096Z,8.25
2023-12-22T09:16:03.601Z,4.47
2023-12-22T09:21:05.968Z,2.13
2023-12-22T09:26:07.416Z,1.45
2023-12-22T09:31:09.217Z,3.13
2023-12-22T09:36:10.625Z,1.85
2023-12-22T09:41:12.240Z,3.45
2023-12-22T09:46:15.348Z,6.50
2023-12-22T09:51:18.657Z,5.22
2023-12-22T09:56:20.634Z,4.65
2023-12-22T10:06:25.430Z,2.95
2023-12-22T10:11:28.356Z,5.93
2023-12-22T10:16:29.784Z,5.57
2023-12-22T10:21:33.007Z,6.28
2023-12-22T10:26:36.599Z,3.90
2023-12-22T10:31:41.591Z,5.65
2023-12-22T10:36:43.036Z,4.95
2023-12-22T10:41:44.876Z,5.93
2023-12-22T10:46:47.950Z,7.53
2023-12-22T10:51:50.027Z,2.67
2023-12-22T10:56:51.475Z,7.32
2023-12-22T11:01:54.714Z,4.78
2023-12-22T11:06:58.058Z,2.70
2023-12-22T11:11:59.763Z,2.53
2023-12-22T11:17:02.425Z,1.70
2023-12-22T11:22:05.036Z,2.05
2023-12-22T11:27:06.972Z,1.42
2023-12-22T11:32:08.542Z,6.07
2023-12-22T11:37:10.660Z,4.32
2023-12-22T11:42:25.896Z,7.28
2023-12-22T11:47:29.073Z,4.50
2023-12-22T11:52:30.662Z,5.95
2023-12-22T11:57:32.807Z,4.05
2023-12-22T12:02:35.703Z,7.20
2023-12-22T12:07:37.780Z,9.32
2023-12-22T12:17:42.126Z,10.02
2023-12-22T12:22:43.957Z,4.32
2023-12-22T12:27:45.416Z,5.32
2023-12-22T12:32:49.761Z,3.38
2023-12-22T12:37:52.464Z,4.40
2023-12-22T12:42:54.640Z,1.40
2023-12-22T12:47:56.143Z,3.63
2023-12-22T12:52:57.843Z,3.88
2023-12-22T12:57:59.587Z,3.42
2023-12-22T13:03:04.086Z,2.47
2023-12-22T13:08:12.722Z,2.58
2023-12-22T13:13:14.506Z,4.00
2023-12-22T13:18:16.019Z,3.55
2023-12-22T13:23:20.635Z,5.97
2023-12-22T13:28:29.472Z,3.55
2023-12-22T13:33:34.601Z,1.85
2023-12-22T13:38:36.348Z,2.15
2023-12-22T13:43:37.931Z,0.43
2023-12-22T13:48:39.489Z,3.25
2023-12-22T13:53:50.523Z,3.50
2023-12-22T13:58:51.940Z,2.78
2023-12-22T14:03:53.425Z,2.60
2023-12-22T14:08:55.309Z,2.05
2023-12-22T14:13:57.222Z,1.38
2023-12-22T14:18:58.898Z,1.27
2023-12-22T14:24:00.442Z,1.05
2023-12-22T14:29:01.900Z,1.05
2023-12-22T14:34:03.366Z,1.42
2023-12-22T14:39:06.345Z,0.50
2023-12-22T14:44:07.760Z,1.02
2023-12-22T14:49:09.273Z,1.40
2023-12-22T14:54:11.248Z,1.15
2023-12-22T14:59:13.186Z,2.72
2023-12-22T15:04:14.665Z,2.05
2023-12-22T15:09:16.178Z,1.90
2023-12-22T15:14:17.877Z,1.85
2023-12-22T15:19:19.369Z,1.80
2023-12-22T15:24:20.798Z,3.58
2023-12-22T15:29:22.286Z,4.57
2023-12-22T15:34:24.240Z,1.65
2023-12-22T15:39:25.619Z,2.58
2023-12-22T15:44:27.066Z,2.40
2023-12-22T15:49:28.865Z,3.45
2023-12-22T15:54:30.578Z,4.93
2023-12-22T15:59:31.977Z,5.80
2023-12-22T16:04:33.389Z,2.88
2023-12-22T16:09:35.488Z,4.15
2023-12-22T16:14:37.200Z,3.60
2023-12-22T16:19:39.599Z,2.05
2023-12-22T16:24:41.067Z,2.17
2023-12-22T16:29:42.721Z,3.63
2023-12-22T16:34:47.876Z,1.38
2023-12-22T16:39:53.807Z,2.95
2023-12-22T16:44:56.626Z,1.45
2023-12-22T16:49:58.044Z,1.73
2023-12-22T16:54:59.824Z,1.33
2023-12-22T17:00:01.216Z,1.63
2023-12-22T17:05:03.672Z,2.10
2023-12-22T17:10:05.773Z,3.33
2023-12-22T17:15:07.556Z,2.13
2023-12-22T17:20:10.246Z,4.65
2023-12-22T17:25:12.038Z,2.55
2023-12-22T17:30:13.553Z,2.17
2023-12-22T17:35:15.005Z,2.08
2023-12-22T17:40:16.415Z,1.63
2023-12-22T17:45:18.242Z,2.53
2023-12-22T17:50:19.717Z,0.88
2023-12-22T17:55:21.131Z,0.45
2023-12-22T18:00:22.605Z,2.03
2023-12-22T18:05:25.561Z,0.35
2023-12-22T18:10:26.984Z,1.08
2023-12-22T18:15:28.423Z,1.15
2023-12-22T18:20:29.805Z,2.13
2023-12-22T18:25:31.374Z,1.05
2023-12-22T18:30:33.153Z,2.25
2023-12-22T18:35:34.524Z,0.85
2023-12-22T18:40:35.897Z,1.38
2023-12-22T18:45:37.943Z,0.65
2023-12-22T18:50:39.852Z,0.32
2023-12-22T18:55:41.811Z,0.70
2023-12-22T19:00:43.197Z,1.02
2023-12-22T19:05:44.795Z,0.75
2023-12-22T19:10:47.029Z,0.95
2023-12-22T19:20:51.085Z,1.13
2023-12-22T19:25:52.509Z,0.75
2023-12-22T19:30:53.886Z,2.90
2023-12-22T19:35:55.624Z,0.22
2023-12-22T19:40:57.102Z,0.82
2023-12-22T19:45:58.809Z,0.40
2023-12-22T19:51:00.235Z,0.47
2023-12-22T19:56:01.678Z,3.08
2023-12-22T20:01:03.152Z,0.80
2023-12-22T20:06:05.904Z,0.98
2023-12-22T20:11:07.369Z,1.33
2023-12-22T20:16:10.569Z,4.47
2023-12-22T20:21:13.363Z,4.38
2023-12-22T20:26:16.351Z,0.93
2023-12-22T20:31:18.332Z,1.13
2023-12-22T20:36:19.712Z,0.68
2023-12-22T20:41:21.094Z,0.38
2023-12-22T20:46:22.657Z,1.77
2023-12-22T20:51:24.085Z,1.77
2023-12-22T20:56:25.489Z,1.58
2023-12-22T21:01:29.883Z,1.08
2023-12-22T21:06:31.316Z,0.50
2023-12-22T21:11:32.800Z,0.95
2023-12-22T21:16:34.358Z,0.90
2023-12-22T21:21:41.354Z,1.70
2023-12-22T21:26:42.761Z,0.75
2023-12-22T21:31:45.432Z,1.02
2023-12-22T21:36:47.577Z,0.70
2023-12-22T21:41:52.723Z,0.60
2023-12-22T21:46:54.168Z,0.82
2023-12-22T21:51:55.677Z,0.88
2023-12-22T21:56:59.488Z,2.40
2023-12-22T22:02:00.893Z,1.33
2023-12-22T22:07:02.321Z,2.38
2023-12-22T22:12:03.791Z,0.50
2023-12-22T22:17:05.196Z,0.60
2023-12-22T22:22:06.661Z,1.98
2023-12-22T22:27:08.903Z,1.00
2023-12-22T22:32:10.268Z,1.80
2023-12-22T22:37:11.647Z,0.57
2023-12-22T22:42:13.057Z,0.90
2023-12-22T22:47:14.479Z,1.20
2023-12-22T22:52:15.856Z,0.57
2023-12-22T22:57:18.045Z,0.68
2023-12-22T23:02:19.438Z,1.30
2023-12-22T23:07:20.845Z,2.58
2023-12-22T23:12:22.180Z,1.98
2023-12-22T23:17:23.708Z,0.43
2023-12-22T23:22:25.546Z,0.40
2023-12-22T23:27:27.181Z,0.25
2023-12-22T23:32:29.662Z,0.73
2023-12-22T23:37:31.037Z,1.60
2023-12-22T23:42:33.276Z,3.17
2023-12-22T23:47:34.661Z,1.08
2023-12-22T23:52:36.057Z,0.60
2023-12-22T23:57:37.831Z,2.08
